sensor_id;sensor_type;location;lat;lon;timestamp;P1;durP1;ratioP1;P2;durP2;ratioP2
36691;SDS011;22678;52.052;4.242;2023-08-06T00:02:05;7.40;;;5.47;;
36691;SDS011;22678;52.052;4.242;2023-08-06T00:04:30;7.22;;;4.80;;
36691;SDS011;22678;52.052;4.242;2023-08-06T00:06:56;7.13;;;3.85;;
36691;SDS011;22678;52.052;4.242;2023-08-06T00:09:21;11.38;;;4.95;;
36691;SDS011;22678;52.052;4.242;2023-08-06T00:11:46;8.68;;;4.85;;
36691;SDS011;22678;52.052;4.242;2023-08-06T00:14:12;7.32;;;4.13;;
36691;SDS011;22678;52.052;4.242;2023-08-06T00:16:40;10.65;;;5.75;;
36691;SDS011;22678;52.052;4.242;2023-08-06T00:19:07;7.95;;;4.80;;
36691;SDS011;22678;52.052;4.242;2023-08-06T00:21:33;8.55;;;5.30;;
36691;SDS011;22678;52.052;4.242;2023-08-06T00:23:58;10.90;;;5.03;;
36691;SDS011;22678;52.052;4.242;2023-08-06T00:26:23;9.98;;;5.38;;
36691;SDS011;22678;52.052;4.242;2023-08-06T00:28:49;9.07;;;6.35;;
36691;SDS011;22678;52.052;4.242;2023-08-06T00:31:15;8.55;;;5.32;;
36691;SDS011;22678;52.052;4.242;2023-08-06T00:33:40;8.65;;;5.07;;
36691;SDS011;22678;52.052;4.242;2023-08-06T00:36:05;8.55;;;4.80;;
36691;SDS011;22678;52.052;4.242;2023-08-06T00:38:30;9.40;;;5.60;;
36691;SDS011;22678;52.052;4.242;2023-08-06T00:40:56;8.35;;;5.78;;
36691;SDS011;22678;52.052;4.242;2023-08-06T00:43:21;8.05;;;4.72;;
36691;SDS011;22678;52.052;4.242;2023-08-06T00:45:46;9.05;;;4.82;;
36691;SDS011;22678;52.052;4.242;2023-08-06T00:48:12;8.23;;;4.85;;
36691;SDS011;22678;52.052;4.242;2023-08-06T00:50:38;6.88;;;3.72;;
36691;SDS011;22678;52.052;4.242;2023-08-06T00:53:03;8.05;;;4.70;;
36691;SDS011;22678;52.052;4.242;2023-08-06T00:55:28;7.80;;;5.00;;
36691;SDS011;22678;52.052;4.242;2023-08-06T00:57:54;12.02;;;5.50;;
36691;SDS011;22678;52.052;4.242;2023-08-06T01:00:21;7.80;;;4.63;;
36691;SDS011;22678;52.052;4.242;2023-08-06T01:02:48;10.25;;;5.57;;
36691;SDS011;22678;52.052;4.242;2023-08-06T01:05:13;9.05;;;4.38;;
36691;SDS011;22678;52.052;4.242;2023-08-06T01:07:51;7.18;;;3.58;;
36691;SDS011;22678;52.052;4.242;2023-08-06T01:12:53;8.63;;;4.00;;
36691;SDS011;22678;52.052;4.242;2023-08-06T01:15:22;8.25;;;4.82;;
36691;SDS011;22678;52.052;4.242;2023-08-06T01:17:56;9.63;;;4.22;;
36691;SDS011;22678;52.052;4.242;2023-08-06T01:20:27;7.38;;;5.00;;
36691;SDS011;22678;52.052;4.242;2023-08-06T01:22:53;10.73;;;4.07;;
36691;SDS011;22678;52.052;4.242;2023-08-06T01:25:18;7.55;;;4.85;;
36691;SDS011;22678;52.052;4.242;2023-08-06T01:27:48;7.45;;;4.00;;
36691;SDS011;22678;52.052;4.242;2023-08-06T01:30:19;6.88;;;4.47;;
36691;SDS011;22678;52.052;4.242;2023-08-06T01:32:50;6.45;;;3.50;;
36691;SDS011;22678;52.052;4.242;2023-08-06T01:35:19;8.00;;;3.75;;
36691;SDS011;22678;52.052;4.242;2023-08-06T01:37:46;6.38;;;3.35;;
36691;SDS011;22678;52.052;4.242;2023-08-06T01:40:12;5.90;;;3.00;;
36691;SDS011;22678;52.052;4.242;2023-08-06T01:42:39;8.23;;;3.70;;
36691;SDS011;22678;52.052;4.242;2023-08-06T01:45:05;4.50;;;1.98;;
36691;SDS011;22678;52.052;4.242;2023-08-06T01:47:32;2.83;;;1.10;;
36691;SDS011;22678;52.052;4.242;2023-08-06T01:49:57;3.83;;;1.98;;
36691;SDS011;22678;52.052;4.242;2023-08-06T01:52:22;6.45;;;1.40;;
36691;SDS011;22678;52.052;4.242;2023-08-06T01:54:48;3.50;;;1.02;;
36691;SDS011;22678;52.052;4.242;2023-08-06T01:57:13;4.85;;;1.00;;
36691;SDS011;22678;52.052;4.242;2023-08-06T01:59:38;4.85;;;2.20;;
36691;SDS011;22678;52.052;4.242;2023-08-06T02:02:04;5.00;;;1.08;;
36691;SDS011;22678;52.052;4.242;2023-08-06T02:04:29;2.78;;;0.85;;
36691;SDS011;22678;52.052;4.242;2023-08-06T02:06:54;0.98;;;0.40;;
36691;SDS011;22678;52.052;4.242;2023-08-06T02:09:20;1.60;;;0.40;;
36691;SDS011;22678;52.052;4.242;2023-08-06T02:11:45;2.97;;;0.52;;
36691;SDS011;22678;52.052;4.242;2023-08-06T02:14:10;6.50;;;2.15;;
36691;SDS011;22678;52.052;4.242;2023-08-06T02:16:36;3.95;;;1.33;;
36691;SDS011;22678;52.052;4.242;2023-08-06T02:19:02;1.67;;;1.00;;
36691;SDS011;22678;52.052;4.242;2023-08-06T02:21:27;1.52;;;0.93;;
36691;SDS011;22678;52.052;4.242;2023-08-06T02:23:53;2.58;;;0.60;;
36691;SDS011;22678;52.052;4.242;2023-08-06T02:26:18;4.05;;;0.90;;
36691;SDS011;22678;52.052;4.242;2023-08-06T02:28:43;2.92;;;0.50;;
36691;SDS011;22678;52.052;4.242;2023-08-06T02:31:08;3.00;;;0.70;;
36691;SDS011;22678;52.052;4.242;2023-08-06T02:33:34;1.67;;;0.80;;
36691;SDS011;22678;52.052;4.242;2023-08-06T02:36:00;2.63;;;0.90;;
36691;SDS011;22678;52.052;4.242;2023-08-06T02:38:31;7.05;;;0.65;;
36691;SDS011;22678;52.052;4.242;2023-08-06T02:40:57;4.05;;;1.13;;
36691;SDS011;22678;52.052;4.242;2023-08-06T02:43:22;3.03;;;0.93;;
36691;SDS011;22678;52.052;4.242;2023-08-06T02:45:47;5.05;;;1.05;;
36691;SDS011;22678;52.052;4.242;2023-08-06T02:48:13;2.53;;;1.08;;
36691;SDS011;22678;52.052;4.242;2023-08-06T02:50:38;6.43;;;1.70;;
36691;SDS011;22678;52.052;4.242;2023-08-06T02:53:07;7.90;;;2.10;;
36691;SDS011;22678;52.052;4.242;2023-08-06T02:55:34;5.20;;;3.25;;
36691;SDS011;22678;52.052;4.242;2023-08-06T02:58:00;6.47;;;2.20;;
36691;SDS011;22678;52.052;4.242;2023-08-06T03:00:26;7.50;;;2.65;;
36691;SDS011;22678;52.052;4.242;2023-08-06T03:02:52;6.45;;;2.97;;
36691;SDS011;22678;52.052;4.242;2023-08-06T03:05:18;6.78;;;1.42;;
36691;SDS011;22678;52.052;4.242;2023-08-06T03:07:43;6.85;;;1.67;;
36691;SDS011;22678;52.052;4.242;2023-08-06T03:10:09;5.82;;;2.58;;
36691;SDS011;22678;52.052;4.242;2023-08-06T03:12:34;9.98;;;1.10;;
36691;SDS011;22678;52.052;4.242;2023-08-06T03:14:59;8.05;;;1.60;;
36691;SDS011;22678;52.052;4.242;2023-08-06T03:17:25;8.85;;;1.42;;
36691;SDS011;22678;52.052;4.242;2023-08-06T03:19:50;6.50;;;0.82;;
36691;SDS011;22678;52.052;4.242;2023-08-06T03:22:16;6.43;;;0.70;;
36691;SDS011;22678;52.052;4.242;2023-08-06T03:24:41;4.45;;;0.80;;
36691;SDS011;22678;52.052;4.242;2023-08-06T03:27:06;8.00;;;1.02;;
36691;SDS011;22678;52.052;4.242;2023-08-06T03:29:32;8.82;;;1.85;;
36691;SDS011;22678;52.052;4.242;2023-08-06T03:31:57;10.73;;;1.27;;
36691;SDS011;22678;52.052;4.242;2023-08-06T03:34:22;6.13;;;2.33;;
36691;SDS011;22678;52.052;4.242;2023-08-06T03:36:48;10.23;;;1.77;;
36691;SDS011;22678;52.052;4.242;2023-08-06T03:39:13;8.10;;;2.03;;
36691;SDS011;22678;52.052;4.242;2023-08-06T03:41:39;4.35;;;2.15;;
36691;SDS011;22678;52.052;4.242;2023-08-06T03:44:04;6.25;;;2.05;;
36691;SDS011;22678;52.052;4.242;2023-08-06T03:46:30;5.32;;;1.92;;
36691;SDS011;22678;52.052;4.242;2023-08-06T03:48:58;7.47;;;1.73;;
36691;SDS011;22678;52.052;4.242;2023-08-06T03:51:24;4.70;;;1.38;;
36691;SDS011;22678;52.052;4.242;2023-08-06T03:53:49;3.20;;;1.88;;
36691;SDS011;22678;52.052;4.242;2023-08-06T03:56:15;5.05;;;1.42;;
36691;SDS011;22678;52.052;4.242;2023-08-06T03:58:40;5.13;;;1.15;;
36691;SDS011;22678;52.052;4.242;2023-08-06T04:01:05;4.22;;;1.30;;
36691;SDS011;22678;52.052;4.242;2023-08-06T04:03:31;4.50;;;1.05;;
36691;SDS011;22678;52.052;4.242;2023-08-06T04:05:56;6.82;;;1.17;;
36691;SDS011;22678;52.052;4.242;2023-08-06T04:08:21;4.85;;;1.77;;
36691;SDS011;22678;52.052;4.242;2023-08-06T04:10:53;4.93;;;1.20;;
36691;SDS011;22678;52.052;4.242;2023-08-06T04:13:18;4.72;;;1.58;;
36691;SDS011;22678;52.052;4.242;2023-08-06T04:15:44;8.23;;;1.48;;
36691;SDS011;22678;52.052;4.242;2023-08-06T04:18:09;6.80;;;1.90;;
36691;SDS011;22678;52.052;4.242;2023-08-06T04:20:35;7.72;;;2.40;;
36691;SDS011;22678;52.052;4.242;2023-08-06T04:25:32;8.88;;;3.83;;
36691;SDS011;22678;52.052;4.242;2023-08-06T04:27:58;10.90;;;3.25;;
36691;SDS011;22678;52.052;4.242;2023-08-06T04:30:23;12.95;;;3.35;;
36691;SDS011;22678;52.052;4.242;2023-08-06T04:32:49;13.90;;;2.42;;
36691;SDS011;22678;52.052;4.242;2023-08-06T04:35:15;11.70;;;2.55;;
36691;SDS011;22678;52.052;4.242;2023-08-06T04:37:41;5.03;;;1.73;;
36691;SDS011;22678;52.052;4.242;2023-08-06T04:40:06;5.15;;;1.77;;
36691;SDS011;22678;52.052;4.242;2023-08-06T04:42:32;5.22;;;1.20;;
36691;SDS011;22678;52.052;4.242;2023-08-06T04:44:57;5.28;;;1.70;;
36691;SDS011;22678;52.052;4.242;2023-08-06T04:47:23;5.05;;;1.92;;
36691;SDS011;22678;52.052;4.242;2023-08-06T04:49:48;14.18;;;2.10;;
36691;SDS011;22678;52.052;4.242;2023-08-06T04:52:13;4.90;;;1.45;;
36691;SDS011;22678;52.052;4.242;2023-08-06T04:54:39;9.55;;;3.28;;
36691;SDS011;22678;52.052;4.242;2023-08-06T04:57:04;4.15;;;1.00;;
36691;SDS011;22678;52.052;4.242;2023-08-06T04:59:30;5.65;;;1.10;;
36691;SDS011;22678;52.052;4.242;2023-08-06T05:01:55;16.45;;;2.55;;
36691;SDS011;22678;52.052;4.242;2023-08-06T05:04:20;12.52;;;1.90;;
36691;SDS011;22678;52.052;4.242;2023-08-06T05:06:46;11.38;;;2.15;;
36691;SDS011;22678;52.052;4.242;2023-08-06T05:09:13;4.97;;;0.95;;
36691;SDS011;22678;52.052;4.242;2023-08-06T05:11:39;3.17;;;0.85;;
36691;SDS011;22678;52.052;4.242;2023-08-06T05:14:04;4.35;;;0.35;;
36691;SDS011;22678;52.052;4.242;2023-08-06T05:16:29;4.63;;;0.38;;
36691;SDS011;22678;52.052;4.242;2023-08-06T05:18:54;10.18;;;0.63;;
36691;SDS011;22678;52.052;4.242;2023-08-06T05:21:20;3.58;;;0.63;;
36691;SDS011;22678;52.052;4.242;2023-08-06T05:23:45;2.33;;;0.63;;
36691;SDS011;22678;52.052;4.242;2023-08-06T05:26:10;3.72;;;0.57;;
36691;SDS011;22678;52.052;4.242;2023-08-06T05:28:36;4.30;;;2.17;;
36691;SDS011;22678;52.052;4.242;2023-08-06T05:31:04;4.07;;;0.50;;
36691;SDS011;22678;52.052;4.242;2023-08-06T05:33:30;4.30;;;1.95;;
36691;SDS011;22678;52.052;4.242;2023-08-06T05:35:55;3.45;;;0.60;;
36691;SDS011;22678;52.052;4.242;2023-08-06T05:38:20;2.92;;;0.25;;
36691;SDS011;22678;52.052;4.242;2023-08-06T05:40:46;3.65;;;0.75;;
36691;SDS011;22678;52.052;4.242;2023-08-06T05:43:11;5.18;;;0.30;;
36691;SDS011;22678;52.052;4.242;2023-08-06T05:45:36;5.78;;;0.50;;
36691;SDS011;22678;52.052;4.242;2023-08-06T05:48:02;2.75;;;0.30;;
36691;SDS011;22678;52.052;4.242;2023-08-06T05:50:27;2.72;;;0.30;;
36691;SDS011;22678;52.052;4.242;2023-08-06T05:52:52;5.47;;;0.43;;
36691;SDS011;22678;52.052;4.242;2023-08-06T05:55:19;2.30;;;0.52;;
36691;SDS011;22678;52.052;4.242;2023-08-06T05:57:45;4.75;;;1.25;;
36691;SDS011;22678;52.052;4.242;2023-08-06T06:00:10;5.05;;;1.75;;
36691;SDS011;22678;52.052;4.242;2023-08-06T06:02:36;9.40;;;0.68;;
36691;SDS011;22678;52.052;4.242;2023-08-06T06:05:01;6.70;;;0.98;;
36691;SDS011;22678;52.052;4.242;2023-08-06T06:07:27;7.18;;;1.65;;
36691;SDS011;22678;52.052;4.242;2023-08-06T06:09:52;7.15;;;1.52;;
36691;SDS011;22678;52.052;4.242;2023-08-06T06:12:18;1.75;;;0.50;;
36691;SDS011;22678;52.052;4.242;2023-08-06T06:14:43;7.10;;;0.40;;
36691;SDS011;22678;52.052;4.242;2023-08-06T06:17:08;2.33;;;0.90;;
36691;SDS011;22678;52.052;4.242;2023-08-06T06:19:33;9.75;;;1.02;;
36691;SDS011;22678;52.052;4.242;2023-08-06T06:21:59;5.97;;;0.68;;
36691;SDS011;22678;52.052;4.242;2023-08-06T06:24:24;4.25;;;0.70;;
36691;SDS011;22678;52.052;4.242;2023-08-06T06:26:50;2.72;;;0.50;;
36691;SDS011;22678;52.052;4.242;2023-08-06T06:29:15;6.55;;;1.08;;
36691;SDS011;22678;52.052;4.242;2023-08-06T06:31:40;1.73;;;0.60;;
36691;SDS011;22678;52.052;4.242;2023-08-06T06:34:06;6.22;;;1.00;;
36691;SDS011;22678;52.052;4.242;2023-08-06T06:36:31;5.18;;;0.85;;
36691;SDS011;22678;52.052;4.242;2023-08-06T06:38:56;6.72;;;0.95;;
36691;SDS011;22678;52.052;4.242;2023-08-06T06:41:22;2.83;;;0.90;;
36691;SDS011;22678;52.052;4.242;2023-08-06T06:43:47;3.95;;;1.10;;
36691;SDS011;22678;52.052;4.242;2023-08-06T06:46:12;4.07;;;1.10;;
36691;SDS011;22678;52.052;4.242;2023-08-06T06:48:38;4.75;;;0.77;;
36691;SDS011;22678;52.052;4.242;2023-08-06T06:51:03;3.45;;;0.77;;
36691;SDS011;22678;52.052;4.242;2023-08-06T06:53:28;6.00;;;1.15;;
36691;SDS011;22678;52.052;4.242;2023-08-06T06:55:54;11.23;;;1.90;;
36691;SDS011;22678;52.052;4.242;2023-08-06T06:58:20;5.90;;;0.98;;
36691;SDS011;22678;52.052;4.242;2023-08-06T07:00:46;2.22;;;0.88;;
36691;SDS011;22678;52.052;4.242;2023-08-06T07:03:12;4.18;;;0.55;;
36691;SDS011;22678;52.052;4.242;2023-08-06T07:05:38;5.38;;;0.82;;
36691;SDS011;22678;52.052;4.242;2023-08-06T07:08:03;4.70;;;1.05;;
36691;SDS011;22678;52.052;4.242;2023-08-06T07:10:29;6.78;;;0.90;;
36691;SDS011;22678;52.052;4.242;2023-08-06T07:12:54;3.80;;;0.80;;
36691;SDS011;22678;52.052;4.242;2023-08-06T07:15:19;3.38;;;0.80;;
36691;SDS011;22678;52.052;4.242;2023-08-06T07:17:45;2.33;;;0.65;;
36691;SDS011;22678;52.052;4.242;2023-08-06T07:20:10;2.03;;;0.40;;
36691;SDS011;22678;52.052;4.242;2023-08-06T07:22:36;7.57;;;1.88;;
36691;SDS011;22678;52.052;4.242;2023-08-06T07:25:01;4.15;;;1.65;;
36691;SDS011;22678;52.052;4.242;2023-08-06T07:27:27;6.45;;;1.38;;
36691;SDS011;22678;52.052;4.242;2023-08-06T07:29:52;2.70;;;0.75;;
36691;SDS011;22678;52.052;4.242;2023-08-06T07:32:18;9.32;;;1.27;;
36691;SDS011;22678;52.052;4.242;2023-08-06T07:34:43;6.38;;;1.00;;
36691;SDS011;22678;52.052;4.242;2023-08-06T07:37:08;2.78;;;0.70;;
36691;SDS011;22678;52.052;4.242;2023-08-06T07:39:34;2.35;;;0.40;;
36691;SDS011;22678;52.052;4.242;2023-08-06T07:41:59;4.82;;;0.57;;
36691;SDS011;22678;52.052;4.242;2023-08-06T07:44:24;5.10;;;1.13;;
36691;SDS011;22678;52.052;4.242;2023-08-06T07:46:50;6.38;;;2.15;;
36691;SDS011;22678;52.052;4.242;2023-08-06T07:49:15;3.63;;;0.60;;
36691;SDS011;22678;52.052;4.242;2023-08-06T07:51:40;5.57;;;1.00;;
36691;SDS011;22678;52.052;4.242;2023-08-06T07:54:06;7.07;;;2.40;;
36691;SDS011;22678;52.052;4.242;2023-08-06T07:56:32;3.55;;;0.40;;
36691;SDS011;22678;52.052;4.242;2023-08-06T07:58:57;1.70;;;0.57;;
36691;SDS011;22678;52.052;4.242;2023-08-06T08:01:22;2.75;;;0.50;;
36691;SDS011;22678;52.052;4.242;2023-08-06T08:03:48;1.80;;;0.40;;
36691;SDS011;22678;52.052;4.242;2023-08-06T08:06:13;4.53;;;0.50;;
36691;SDS011;22678;52.052;4.242;2023-08-06T08:08:38;2.40;;;0.70;;
36691;SDS011;22678;52.052;4.242;2023-08-06T08:11:05;4.53;;;0.73;;
36691;SDS011;22678;52.052;4.242;2023-08-06T08:13:30;1.80;;;0.50;;
36691;SDS011;22678;52.052;4.242;2023-08-06T08:15:57;3.13;;;0.82;;
36691;SDS011;22678;52.052;4.242;2023-08-06T08:18:23;2.80;;;0.50;;
36691;SDS011;22678;52.052;4.242;2023-08-06T08:20:49;4.20;;;0.90;;
36691;SDS011;22678;52.052;4.242;2023-08-06T08:23:14;4.70;;;1.35;;
36691;SDS011;22678;52.052;4.242;2023-08-06T08:25:39;2.38;;;0.98;;
36691;SDS011;22678;52.052;4.242;2023-08-06T08:28:04;6.93;;;0.45;;
36691;SDS011;22678;52.052;4.242;2023-08-06T08:30:30;4.85;;;1.05;;
36691;SDS011;22678;52.052;4.242;2023-08-06T08:32:55;3.28;;;1.77;;
36691;SDS011;22678;52.052;4.242;2023-08-06T08:35:21;2.95;;;0.73;;
36691;SDS011;22678;52.052;4.242;2023-08-06T08:37:46;4.38;;;0.30;;
36691;SDS011;22678;52.052;4.242;2023-08-06T08:40:11;2.13;;;0.93;;
36691;SDS011;22678;52.052;4.242;2023-08-06T08:42:39;3.88;;;1.38;;
36691;SDS011;22678;52.052;4.242;2023-08-06T08:45:04;3.40;;;0.47;;
36691;SDS011;22678;52.052;4.242;2023-08-06T08:47:36;2.72;;;0.63;;
36691;SDS011;22678;52.052;4.242;2023-08-06T08:50:02;3.25;;;0.50;;
36691;SDS011;22678;52.052;4.242;2023-08-06T08:52:30;2.03;;;0.70;;
36691;SDS011;22678;52.052;4.242;2023-08-06T08:54:57;2.75;;;0.35;;
36691;SDS011;22678;52.052;4.242;2023-08-06T08:57:23;5.53;;;0.40;;
36691;SDS011;22678;52.052;4.242;2023-08-06T08:59:49;1.58;;;0.40;;
36691;SDS011;22678;52.052;4.242;2023-08-06T09:02:15;3.13;;;1.30;;
36691;SDS011;22678;52.052;4.242;2023-08-06T09:04:41;3.10;;;1.58;;
36691;SDS011;22678;52.052;4.242;2023-08-06T09:07:08;7.20;;;0.55;;
36691;SDS011;22678;52.052;4.242;2023-08-06T09:09:38;2.88;;;0.73;;
36691;SDS011;22678;52.052;4.242;2023-08-06T09:12:12;3.15;;;0.60;;
36691;SDS011;22678;52.052;4.242;2023-08-06T09:14:39;1.55;;;0.47;;
36691;SDS011;22678;52.052;4.242;2023-08-06T09:17:04;3.97;;;0.50;;
36691;SDS011;22678;52.052;4.242;2023-08-06T09:19:31;1.77;;;0.60;;
36691;SDS011;22678;52.052;4.242;2023-08-06T09:21:56;5.97;;;1.65;;
36691;SDS011;22678;52.052;4.242;2023-08-06T09:24:22;4.90;;;1.73;;
36691;SDS011;22678;52.052;4.242;2023-08-06T09:26:47;3.42;;;0.30;;
36691;SDS011;22678;52.052;4.242;2023-08-06T09:29:13;4.68;;;1.15;;
36691;SDS011;22678;52.052;4.242;2023-08-06T09:34:16;2.95;;;0.68;;
36691;SDS011;22678;52.052;4.242;2023-08-06T09:36:52;3.35;;;0.47;;
36691;SDS011;22678;52.052;4.242;2023-08-06T09:39:19;3.90;;;0.50;;
36691;SDS011;22678;52.052;4.242;2023-08-06T09:41:46;5.05;;;1.15;;
36691;SDS011;22678;52.052;4.242;2023-08-06T09:44:16;1.52;;;0.22;;
36691;SDS011;22678;52.052;4.242;2023-08-06T09:46:46;1.15;;;0.40;;
36691;SDS011;22678;52.052;4.242;2023-08-06T09:49:16;1.55;;;0.45;;
36691;SDS011;22678;52.052;4.242;2023-08-06T09:51:43;2.42;;;0.40;;
36691;SDS011;22678;52.052;4.242;2023-08-06T09:54:09;2.38;;;0.30;;
36691;SDS011;22678;52.052;4.242;2023-08-06T09:56:38;2.10;;;0.50;;
36691;SDS011;22678;52.052;4.242;2023-08-06T09:59:04;1.50;;;0.55;;
36691;SDS011;22678;52.052;4.242;2023-08-06T10:01:34;1.50;;;0.40;;
36691;SDS011;22678;52.052;4.242;2023-08-06T10:04:04;2.13;;;0.40;;
36691;SDS011;22678;52.052;4.242;2023-08-06T10:06:33;2.08;;;0.22;;
36691;SDS011;22678;52.052;4.242;2023-08-06T10:09:00;3.53;;;0.45;;
36691;SDS011;22678;52.052;4.242;2023-08-06T10:11:26;2.38;;;0.52;;
36691;SDS011;22678;52.052;4.242;2023-08-06T10:14:39;4.15;;;1.13;;
36691;SDS011;22678;52.052;4.242;2023-08-06T10:16:47;9.98;;;0.80;;
36691;SDS011;22678;52.052;4.242;2023-08-06T10:19:13;3.10;;;0.40;;
36691;SDS011;22678;52.052;4.242;2023-08-06T10:21:41;1.55;;;0.30;;
36691;SDS011;22678;52.052;4.242;2023-08-06T10:24:07;4.10;;;0.38;;
36691;SDS011;22678;52.052;4.242;2023-08-06T10:26:35;4.00;;;0.40;;
36691;SDS011;22678;52.052;4.242;2023-08-06T10:29:02;3.13;;;0.38;;
36691;SDS011;22678;52.052;4.242;2023-08-06T10:32:07;2.63;;;0.38;;
36691;SDS011;22678;52.052;4.242;2023-08-06T10:37:35;3.47;;;0.50;;
36691;SDS011;22678;52.052;4.242;2023-08-06T10:40:02;3.10;;;0.80;;
36691;SDS011;22678;52.052;4.242;2023-08-06T10:42:28;2.72;;;0.63;;
36691;SDS011;22678;52.052;4.242;2023-08-06T10:47:40;4.30;;;0.45;;
36691;SDS011;22678;52.052;4.242;2023-08-06T10:50:07;3.80;;;0.45;;
36691;SDS011;22678;52.052;4.242;2023-08-06T10:52:34;4.43;;;0.60;;
36691;SDS011;22678;52.052;4.242;2023-08-06T10:54:59;3.67;;;1.20;;
36691;SDS011;22678;52.052;4.242;2023-08-06T10:57:25;12.25;;;0.43;;
36691;SDS011;22678;52.052;4.242;2023-08-06T10:59:50;1.02;;;0.30;;
36691;SDS011;22678;52.052;4.242;2023-08-06T11:02:16;8.13;;;0.28;;
36691;SDS011;22678;52.052;4.242;2023-08-06T11:04:42;2.83;;;0.52;;
36691;SDS011;22678;52.052;4.242;2023-08-06T11:07:08;3.50;;;0.40;;
36691;SDS011;22678;52.052;4.242;2023-08-06T11:09:33;3.88;;;0.47;;
36691;SDS011;22678;52.052;4.242;2023-08-06T11:11:58;7.20;;;0.60;;
36691;SDS011;22678;52.052;4.242;2023-08-06T11:14:24;4.20;;;0.63;;
36691;SDS011;22678;52.052;4.242;2023-08-06T11:16:50;3.53;;;0.75;;
36691;SDS011;22678;52.052;4.242;2023-08-06T11:19:15;4.22;;;0.40;;
36691;SDS011;22678;52.052;4.242;2023-08-06T11:21:42;3.78;;;0.30;;
36691;SDS011;22678;52.052;4.242;2023-08-06T11:24:10;2.00;;;0.88;;
36691;SDS011;22678;52.052;4.242;2023-08-06T11:26:36;3.58;;;0.20;;
36691;SDS011;22678;52.052;4.242;2023-08-06T11:29:02;2.05;;;0.40;;
36691;SDS011;22678;52.052;4.242;2023-08-06T11:31:28;3.33;;;1.10;;
36691;SDS011;22678;52.052;4.242;2023-08-06T11:33:54;3.63;;;0.47;;
36691;SDS011;22678;52.052;4.242;2023-08-06T11:36:29;3.05;;;0.20;;
36691;SDS011;22678;52.052;4.242;2023-08-06T11:38:56;3.38;;;0.30;;
36691;SDS011;22678;52.052;4.242;2023-08-06T11:41:22;4.35;;;0.40;;
36691;SDS011;22678;52.052;4.242;2023-08-06T11:43:48;2.20;;;0.30;;
36691;SDS011;22678;52.052;4.242;2023-08-06T11:46:13;1.88;;;0.43;;
36691;SDS011;22678;52.052;4.242;2023-08-06T11:48:51;1.45;;;0.17;;
36691;SDS011;22678;52.052;4.242;2023-08-06T11:51:23;4.85;;;0.55;;
36691;SDS011;22678;52.052;4.242;2023-08-06T11:53:55;13.07;;;0.55;;
36691;SDS011;22678;52.052;4.242;2023-08-06T11:56:21;4.40;;;1.13;;
36691;SDS011;22678;52.052;4.242;2023-08-06T11:58:46;4.95;;;0.52;;
36691;SDS011;22678;52.052;4.242;2023-08-06T12:01:13;3.05;;;0.30;;
36691;SDS011;22678;52.052;4.242;2023-08-06T12:03:42;3.90;;;0.73;;
36691;SDS011;22678;52.052;4.242;2023-08-06T12:06:07;2.60;;;0.88;;
36691;SDS011;22678;52.052;4.242;2023-08-06T12:08:33;2.70;;;0.32;;
36691;SDS011;22678;52.052;4.242;2023-08-06T12:10:58;1.95;;;0.32;;
36691;SDS011;22678;52.052;4.242;2023-08-06T12:13:24;4.10;;;0.17;;
36691;SDS011;22678;52.052;4.242;2023-08-06T12:15:50;2.53;;;0.40;;
36691;SDS011;22678;52.052;4.242;2023-08-06T12:18:17;2.40;;;0.28;;
36691;SDS011;22678;52.052;4.242;2023-08-06T12:20:43;10.75;;;0.90;;
36691;SDS011;22678;52.052;4.242;2023-08-06T12:23:08;2.78;;;0.38;;
36691;SDS011;22678;52.052;4.242;2023-08-06T12:25:34;2.70;;;0.90;;
36691;SDS011;22678;52.052;4.242;2023-08-06T12:28:00;1.85;;;0.17;;
36691;SDS011;22678;52.052;4.242;2023-08-06T12:30:25;2.53;;;0.20;;
36691;SDS011;22678;52.052;4.242;2023-08-06T12:32:51;0.90;;;0.20;;
36691;SDS011;22678;52.052;4.242;2023-08-06T12:35:17;1.35;;;0.25;;
36691;SDS011;22678;52.052;4.242;2023-08-06T12:37:42;1.33;;;0.17;;
36691;SDS011;22678;52.052;4.242;2023-08-06T12:40:09;1.77;;;0.30;;
36691;SDS011;22678;52.052;4.242;2023-08-06T12:42:34;0.57;;;0.20;;
36691;SDS011;22678;52.052;4.242;2023-08-06T12:45:00;5.00;;;0.20;;
36691;SDS011;22678;52.052;4.242;2023-08-06T12:47:26;7.70;;;1.23;;
36691;SDS011;22678;52.052;4.242;2023-08-06T12:49:51;5.90;;;0.50;;
36691;SDS011;22678;52.052;4.242;2023-08-06T12:52:16;7.75;;;1.23;;
36691;SDS011;22678;52.052;4.242;2023-08-06T12:54:44;4.78;;;0.52;;
36691;SDS011;22678;52.052;4.242;2023-08-06T12:57:11;3.08;;;0.47;;
36691;SDS011;22678;52.052;4.242;2023-08-06T12:59:36;5.85;;;0.30;;
36691;SDS011;22678;52.052;4.242;2023-08-06T13:02:02;11.73;;;1.15;;
36691;SDS011;22678;52.052;4.242;2023-08-06T13:04:28;8.82;;;0.55;;
36691;SDS011;22678;52.052;4.242;2023-08-06T13:06:54;5.68;;;1.30;;
36691;SDS011;22678;52.052;4.242;2023-08-06T13:09:19;15.73;;;1.60;;
36691;SDS011;22678;52.052;4.242;2023-08-06T13:11:44;8.20;;;0.95;;
36691;SDS011;22678;52.052;4.242;2023-08-06T13:14:11;4.47;;;0.70;;
36691;SDS011;22678;52.052;4.242;2023-08-06T13:16:39;6.00;;;0.85;;
36691;SDS011;22678;52.052;4.242;2023-08-06T13:19:06;13.00;;;1.30;;
36691;SDS011;22678;52.052;4.242;2023-08-06T13:21:35;6.82;;;0.73;;
36691;SDS011;22678;52.052;4.242;2023-08-06T13:24:21;7.47;;;0.93;;
36691;SDS011;22678;52.052;4.242;2023-08-06T13:26:46;7.05;;;0.55;;
36691;SDS011;22678;52.052;4.242;2023-08-06T13:29:11;6.20;;;0.50;;
36691;SDS011;22678;52.052;4.242;2023-08-06T13:31:37;5.55;;;0.40;;
36691;SDS011;22678;52.052;4.242;2023-08-06T13:34:02;4.38;;;0.60;;
36691;SDS011;22678;52.052;4.242;2023-08-06T13:36:28;4.93;;;0.90;;
36691;SDS011;22678;52.052;4.242;2023-08-06T13:38:54;8.57;;;2.15;;
36691;SDS011;22678;52.052;4.242;2023-08-06T13:41:19;6.80;;;0.88;;
36691;SDS011;22678;52.052;4.242;2023-08-06T13:43:45;2.95;;;0.50;;
36691;SDS011;22678;52.052;4.242;2023-08-06T13:46:11;6.32;;;0.60;;
36691;SDS011;22678;52.052;4.242;2023-08-06T13:48:44;1.63;;;0.38;;
36691;SDS011;22678;52.052;4.242;2023-08-06T13:51:11;4.13;;;1.23;;
36691;SDS011;22678;52.052;4.242;2023-08-06T13:53:39;11.10;;;0.50;;
36691;SDS011;22678;52.052;4.242;2023-08-06T13:56:06;8.00;;;1.35;;
36691;SDS011;22678;52.052;4.242;2023-08-06T13:58:32;8.25;;;1.05;;
36691;SDS011;22678;52.052;4.242;2023-08-06T14:00:58;17.92;;;2.03;;
36691;SDS011;22678;52.052;4.242;2023-08-06T14:03:23;13.52;;;3.35;;
36691;SDS011;22678;52.052;4.242;2023-08-06T14:05:49;5.97;;;0.95;;
36691;SDS011;22678;52.052;4.242;2023-08-06T14:08:15;5.28;;;0.98;;
36691;SDS011;22678;52.052;4.242;2023-08-06T14:10:43;6.82;;;0.57;;
36691;SDS011;22678;52.052;4.242;2023-08-06T14:13:08;6.30;;;0.73;;
36691;SDS011;22678;52.052;4.242;2023-08-06T14:15:33;24.58;;;1.20;;
36691;SDS011;22678;52.052;4.242;2023-08-06T14:17:59;7.07;;;1.25;;
36691;SDS011;22678;52.052;4.242;2023-08-06T14:20:24;3.97;;;0.40;;
36691;SDS011;22678;52.052;4.242;2023-08-06T14:22:50;5.80;;;1.27;;
36691;SDS011;22678;52.052;4.242;2023-08-06T14:25:15;4.65;;;0.50;;
36691;SDS011;22678;52.052;4.242;2023-08-06T14:27:40;7.38;;;0.68;;
36691;SDS011;22678;52.052;4.242;2023-08-06T14:30:06;7.57;;;0.80;;
36691;SDS011;22678;52.052;4.242;2023-08-06T14:32:32;14.63;;;3.15;;
36691;SDS011;22678;52.052;4.242;2023-08-06T14:34:58;12.25;;;1.45;;
36691;SDS011;22678;52.052;4.242;2023-08-06T14:37:24;7.70;;;1.27;;
36691;SDS011;22678;52.052;4.242;2023-08-06T14:39:50;4.63;;;0.40;;
36691;SDS011;22678;52.052;4.242;2023-08-06T14:42:16;6.85;;;0.70;;
36691;SDS011;22678;52.052;4.242;2023-08-06T14:44:42;5.90;;;0.90;;
36691;SDS011;22678;52.052;4.242;2023-08-06T14:47:07;5.85;;;1.90;;
36691;SDS011;22678;52.052;4.242;2023-08-06T14:49:32;5.82;;;0.50;;
36691;SDS011;22678;52.052;4.242;2023-08-06T14:51:58;4.55;;;1.17;;
36691;SDS011;22678;52.052;4.242;2023-08-06T14:54:25;6.88;;;2.22;;